sensor_id;sensor_type;location;lat;lon;timestamp;temperature;humidity
5697;DHT22;2873;50.966;7.210;2022-11-18T00:01:33;10.90;99.90
5697;DHT22;2873;50.966;7.210;2022-11-18T00:03:59;10.90;99.90
5697;DHT22;2873;50.966;7.210;2022-11-18T00:06:26;11.00;99.90
5697;DHT22;2873;50.966;7.210;2022-11-18T00:08:53;10.90;99.90
5697;DHT22;2873;50.966;7.210;2022-11-18T00:11:24;10.90;99.90
5697;DHT22;2873;50.966;7.210;2022-11-18T00:14:14;10.90;99.90
5697;DHT22;2873;50.966;7.210;2022-11-18T00:16:58;10.80;99.90
5697;DHT22;2873;50.966;7.210;2022-11-18T00:19:39;10.70;99.90
5697;DHT22;2873;50.966;7.210;2022-11-18T00:22:07;10.60;99.90
5697;DHT22;2873;50.966;7.210;2022-11-18T00:24:33;10.60;99.90
5697;DHT22;2873;50.966;7.210;2022-11-18T00:26:58;10.70;99.90
5697;DHT22;2873;50.966;7.210;2022-11-18T00:29:24;10.70;99.90
5697;DHT22;2873;50.966;7.210;2022-11-18T00:31:57;10.70;99.90
5697;DHT22;2873;50.966;7.210;2022-11-18T00:34:24;10.50;99.90
5697;DHT22;2873;50.966;7.210;2022-11-18T00:36:50;10.50;99.90
5697;DHT22;2873;50.966;7.210;2022-11-18T00:39:18;10.60;99.90
5697;DHT22;2873;50.966;7.210;2022-11-18T00:41:44;10.60;99.90
5697;DHT22;2873;50.966;7.210;2022-11-18T00:44:28;10.50;99.90
5697;DHT22;2873;50.966;7.210;2022-11-18T00:46:54;10.60;99.90
5697;DHT22;2873;50.966;7.210;2022-11-18T00:49:20;10.50;99.90
5697;DHT22;2873;50.966;7.210;2022-11-18T00:51:45;10.40;99.90
5697;DHT22;2873;50.966;7.210;2022-11-18T00:54:11;10.40;99.90
5697;DHT22;2873;50.966;7.210;2022-11-18T00:56:36;10.40;99.90
5697;DHT22;2873;50.966;7.210;2022-11-18T00:59:02;10.30;99.90
5697;DHT22;2873;50.966;7.210;2022-11-18T01:01:28;10.40;99.90
5697;DHT22;2873;50.966;7.210;2022-11-18T01:03:53;10.50;99.90
5697;DHT22;2873;50.966;7.210;2022-11-18T01:06:19;10.60;99.90
5697;DHT22;2873;50.966;7.210;2022-11-18T01:08:44;10.70;99.90
5697;DHT22;2873;50.966;7.210;2022-11-18T01:11:10;10.70;99.90
5697;DHT22;2873;50.966;7.210;2022-11-18T01:13:54;10.80;99.90
5697;DHT22;2873;50.966;7.210;2022-11-18T01:16:25;10.70;99.90
5697;DHT22;2873;50.966;7.210;2022-11-18T01:18:51;10.70;99.90
5697;DHT22;2873;50.966;7.210;2022-11-18T01:21:16;10.60;99.90
5697;DHT22;2873;50.966;7.210;2022-11-18T01:23:42;10.60;99.90
5697;DHT22;2873;50.966;7.210;2022-11-18T01:26:10;10.50;99.90
5697;DHT22;2873;50.966;7.210;2022-11-18T01:28:36;10.60;99.90
5697;DHT22;2873;50.966;7.210;2022-11-18T01:31:15;10.60;99.90
5697;DHT22;2873;50.966;7.210;2022-11-18T01:33:42;10.60;99.90
5697;DHT22;2873;50.966;7.210;2022-11-18T01:36:20;10.70;99.90
5697;DHT22;2873;50.966;7.210;2022-11-18T01:38:47;10.70;99.90
5697;DHT22;2873;50.966;7.210;2022-11-18T01:41:13;10.70;99.90
5697;DHT22;2873;50.966;7.210;2022-11-18T01:43:58;10.70;99.90
5697;DHT22;2873;50.966;7.210;2022-11-18T01:46:27;10.80;99.90
5697;DHT22;2873;50.966;7.210;2022-11-18T01:48:57;10.70;99.90
5697;DHT22;2873;50.966;7.210;2022-11-18T01:51:30;10.70;99.90
5697;DHT22;2873;50.966;7.210;2022-11-18T01:54:01;10.70;99.90
5697;DHT22;2873;50.966;7.210;2022-11-18T01:56:32;10.80;99.90
5697;DHT22;2873;50.966;7.210;2022-11-18T01:59:05;10.80;99.90
5697;DHT22;2873;50.966;7.210;2022-11-18T02:01:32;10.70;99.90
5697;DHT22;2873;50.966;7.210;2022-11-18T02:03:57;10.80;99.90
5697;DHT22;2873;50.966;7.210;2022-11-18T02:06:23;10.80;99.90
5697;DHT22;2873;50.966;7.210;2022-11-18T02:08:50;10.90;99.90
5697;DHT22;2873;50.966;7.210;2022-11-18T02:11:16;10.60;99.90
5697;DHT22;2873;50.966;7.210;2022-11-18T02:14:03;10.60;99.90
5697;DHT22;2873;50.966;7.210;2022-11-18T02:19:47;10.60;99.90
5697;DHT22;2873;50.966;7.210;2022-11-18T02:24:54;10.30;99.90
5697;DHT22;2873;50.966;7.210;2022-11-18T02:27:37;10.40;99.90
5697;DHT22;2873;50.966;7.210;2022-11-18T02:30:11;10.50;99.90
5697;DHT22;2873;50.966;7.210;2022-11-18T02:32:55;10.40;99.90
5697;DHT22;2873;50.966;7.210;2022-11-18T02:35:43;10.40;99.90
5697;DHT22;2873;50.966;7.210;2022-11-18T02:38:16;10.10;99.90
5697;DHT22;2873;50.966;7.210;2022-11-18T02:40:48;9.90;99.90
5697;DHT22;2873;50.966;7.210;2022-11-18T02:43:21;9.80;99.90
5697;DHT22;2873;50.966;7.210;2022-11-18T02:45:55;9.70;99.90
5697;DHT22;2873;50.966;7.210;2022-11-18T02:48:25;9.80;99.90
5697;DHT22;2873;50.966;7.210;2022-11-18T02:50:52;9.70;99.90
5697;DHT22;2873;50.966;7.210;2022-11-18T02:53:20;9.70;99.90
5697;DHT22;2873;50.966;7.210;2022-11-18T02:55:46;9.80;99.90
5697;DHT22;2873;50.966;7.210;2022-11-18T02:58:14;9.80;99.90
5697;DHT22;2873;50.966;7.210;2022-11-18T03:00:40;9.90;99.90
5697;DHT22;2873;50.966;7.210;2022-11-18T03:03:26;9.90;99.90
5697;DHT22;2873;50.966;7.210;2022-11-18T03:08:45;9.70;99.90
5697;DHT22;2873;50.966;7.210;2022-11-18T03:11:33;9.80;99.90
5697;DHT22;2873;50.966;7.210;2022-11-18T03:16:45;9.70;99.90
5697;DHT22;2873;50.966;7.210;2022-11-18T03:22:25;9.80;99.90
5697;DHT22;2873;50.966;7.210;2022-11-18T03:25:17;9.80;99.90
5697;DHT22;2873;50.966;7.210;2022-11-18T03:27:59;9.70;99.90
5697;DHT22;2873;50.966;7.210;2022-11-18T03:30:29;9.60;99.90
5697;DHT22;2873;50.966;7.210;2022-11-18T03:32:59;9.80;99.90
5697;DHT22;2873;50.966;7.210;2022-11-18T03:35:29;9.90;99.90
5697;DHT22;2873;50.966;7.210;2022-11-18T03:38:03;10.00;99.90
5697;DHT22;2873;50.966;7.210;2022-11-18T03:40:30;10.10;99.90
5697;DHT22;2873;50.966;7.210;2022-11-18T03:43:12;10.00;99.90
5697;DHT22;2873;50.966;7.210;2022-11-18T03:45:46;10.10;99.90
5697;DHT22;2873;50.966;7.210;2022-11-18T03:48:16;10.00;99.90
5697;DHT22;2873;50.966;7.210;2022-11-18T03:50:48;10.00;99.90
5697;DHT22;2873;50.966;7.210;2022-11-18T03:53:16;10.10;99.90
5697;DHT22;2873;50.966;7.210;2022-11-18T03:55:46;10.20;99.90
5697;DHT22;2873;50.966;7.210;2022-11-18T03:58:28;10.30;99.90
5697;DHT22;2873;50.966;7.210;2022-11-18T04:01:00;10.30;99.90
5697;DHT22;2873;50.966;7.210;2022-11-18T04:03:28;10.30;99.90
5697;DHT22;2873;50.966;7.210;2022-11-18T04:06:08;10.30;99.90
5697;DHT22;2873;50.966;7.210;2022-11-18T04:08:38;10.30;99.90
5697;DHT22;2873;50.966;7.210;2022-11-18T04:11:12;10.50;99.90
5697;DHT22;2873;50.966;7.210;2022-11-18T04:14:00;10.50;99.90
5697;DHT22;2873;50.966;7.210;2022-11-18T04:16:25;10.40;99.90
5697;DHT22;2873;50.966;7.210;2022-11-18T04:18:51;10.40;99.90
5697;DHT22;2873;50.966;7.210;2022-11-18T04:21:16;10.20;99.90
5697;DHT22;2873;50.966;7.210;2022-11-18T04:23:42;10.20;99.90
5697;DHT22;2873;50.966;7.210;2022-11-18T04:26:09;10.30;99.90
5697;DHT22;2873;50.966;7.210;2022-11-18T04:28:36;10.30;99.90
5697;DHT22;2873;50.966;7.210;2022-11-18T04:31:01;10.40;99.90
5697;DHT22;2873;50.966;7.210;2022-11-18T04:33:27;10.30;99.90
5697;DHT22;2873;50.966;7.210;2022-11-18T04:35:52;10.40;99.90
5697;DHT22;2873;50.966;7.210;2022-11-18T04:38:18;10.40;99.90
5697;DHT22;2873;50.966;7.210;2022-11-18T04:40:45;10.50;99.90
5697;DHT22;2873;50.966;7.210;2022-11-18T04:43:11;10.60;99.90
5697;DHT22;2873;50.966;7.210;2022-11-18T04:45:36;10.60;99.90
5697;DHT22;2873;50.966;7.210;2022-11-18T04:48:02;10.60;99.90
5697;DHT22;2873;50.966;7.210;2022-11-18T04:50:27;10.60;99.90
5697;DHT22;2873;50.966;7.210;2022-11-18T04:52:53;10.60;99.90
5697;DHT22;2873;50.966;7.210;2022-11-18T04:55:18;10.60;99.90
5697;DHT22;2873;50.966;7.210;2022-11-18T04:57:44;10.70;99.90
5697;DHT22;2873;50.966;7.210;2022-11-18T05:00:10;10.70;99.90
5697;DHT22;2873;50.966;7.210;2022-11-18T05:02:36;10.70;99.90
5697;DHT22;2873;50.966;7.210;2022-11-18T05:05:02;10.70;99.90
5697;DHT22;2873;50.966;7.210;2022-11-18T05:07:27;10.70;99.90
5697;DHT22;2873;50.966;7.210;2022-11-18T05:09:53;10.70;99.90
5697;DHT22;2873;50.966;7.210;2022-11-18T05:12:18;10.60;99.90
5697;DHT22;2873;50.966;7.210;2022-11-18T05:15:02;10.70;99.90
5697;DHT22;2873;50.966;7.210;2022-11-18T05:17:28;10.60;99.90
5697;DHT22;2873;50.966;7.210;2022-11-18T05:19:54;10.70;99.90
5697;DHT22;2873;50.966;7.210;2022-11-18T05:22:19;10.70;99.90
5697;DHT22;2873;50.966;7.210;2022-11-18T05:24:45;10.60;99.90
5697;DHT22;2873;50.966;7.210;2022-11-18T05:27:11;10.60;99.90
5697;DHT22;2873;50.966;7.210;2022-11-18T05:29:37;10.60;99.90
5697;DHT22;2873;50.966;7.210;2022-11-18T05:32:02;10.60;99.90
5697;DHT22;2873;50.966;7.210;2022-11-18T05:34:28;10.60;99.90
5697;DHT22;2873;50.966;7.210;2022-11-18T05:36:53;10.40;99.90
5697;DHT22;2873;50.966;7.210;2022-11-18T05:39:19;10.50;99.90
5697;DHT22;2873;50.966;7.210;2022-11-18T05:41:44;10.50;99.90
5697;DHT22;2873;50.966;7.210;2022-11-18T05:44:28;10.50;99.90
5697;DHT22;2873;50.966;7.210;2022-11-18T05:46:54;10.60;99.90
5697;DHT22;2873;50.966;7.210;2022-11-18T05:49:19;10.60;99.90
5697;DHT22;2873;50.966;7.210;2022-11-18T05:51:45;10.70;99.90
5697;DHT22;2873;50.966;7.210;2022-11-18T05:54:13;10.70;99.90
5697;DHT22;2873;50.966;7.210;2022-11-18T05:56:42;10.70;99.90
5697;DHT22;2873;50.966;7.210;2022-11-18T05:59:11;10.80;99.90
5697;DHT22;2873;50.966;7.210;2022-11-18T06:07:04;10.80;99.90
5697;DHT22;2873;50.966;7.210;2022-11-18T06:09:35;10.80;99.90
5697;DHT22;2873;50.966;7.210;2022-11-18T06:12:03;10.80;99.90
5697;DHT22;2873;50.966;7.210;2022-11-18T06:14:42;10.90;99.90
5697;DHT22;2873;50.966;7.210;2022-11-18T06:17:13;10.90;99.90
5697;DHT22;2873;50.966;7.210;2022-11-18T06:19:40;10.90;99.90
5697;DHT22;2873;50.966;7.210;2022-11-18T06:22:06;10.90;99.90
5697;DHT22;2873;50.966;7.210;2022-11-18T06:24:33;10.90;99.90
5697;DHT22;2873;50.966;7.210;2022-11-18T06:26:59;10.90;99.90
5697;DHT22;2873;50.966;7.210;2022-11-18T06:29:25;10.90;99.90
5697;DHT22;2873;50.966;7.210;2022-11-18T06:31:51;10.90;99.90
5697;DHT22;2873;50.966;7.210;2022-11-18T06:34:16;10.90;99.90
5697;DHT22;2873;50.966;7.210;2022-11-18T06:36:42;10.90;99.90
5697;DHT22;2873;50.966;7.210;2022-11-18T06:39:07;10.90;99.90
5697;DHT22;2873;50.966;7.210;2022-11-18T06:41:33;10.90;99.90
5697;DHT22;2873;50.966;7.210;2022-11-18T06:43:59;10.90;99.90
5697;DHT22;2873;50.966;7.210;2022-11-18T06:46:25;11.00;99.90
5697;DHT22;2873;50.966;7.210;2022-11-18T06:49:08;10.90;99.90
5697;DHT22;2873;50.966;7.210;2022-11-18T06:51:34;10.90;99.90
5697;DHT22;2873;50.966;7.210;2022-11-18T06:54:00;10.90;99.90
5697;DHT22;2873;50.966;7.210;2022-11-18T06:56:27;10.90;99.90
5697;DHT22;2873;50.966;7.210;2022-11-18T06:58:54;10.90;99.90
5697;DHT22;2873;50.966;7.210;2022-11-18T07:01:23;10.90;99.90
5697;DHT22;2873;50.966;7.210;2022-11-18T07:03:49;10.90;99.90
5697;DHT22;2873;50.966;7.210;2022-11-18T07:06:18;10.90;99.90
5697;DHT22;2873;50.966;7.210;2022-11-18T07:08:44;11.00;99.90
5697;DHT22;2873;50.966;7.210;2022-11-18T07:11:12;11.00;99.90
5697;DHT22;2873;50.966;7.210;2022-11-18T07:13:39;11.00;99.90
5697;DHT22;2873;50.966;7.210;2022-11-18T07:16:07;11.00;99.90
5697;DHT22;2873;50.966;7.210;2022-11-18T07:18:34;11.00;99.90
5697;DHT22;2873;50.966;7.210;2022-11-18T07:21:12;10.90;99.90
5697;DHT22;2873;50.966;7.210;2022-11-18T07:23:38;11.00;99.90
5697;DHT22;2873;50.966;7.210;2022-11-18T07:26:04;11.00;99.90
5697;DHT22;2873;50.966;7.210;2022-11-18T07:28:30;10.90;99.90
5697;DHT22;2873;50.966;7.210;2022-11-18T07:31:11;10.90;99.90
5697;DHT22;2873;50.966;7.210;2022-11-18T07:33:38;10.90;99.90
5697;DHT22;2873;50.966;7.210;2022-11-18T07:36:12;11.00;99.90
5697;DHT22;2873;50.966;7.210;2022-11-18T07:38:38;11.00;99.90
5697;DHT22;2873;50.966;7.210;2022-11-18T07:41:06;11.00;99.90
5697;DHT22;2873;50.966;7.210;2022-11-18T07:43:33;11.00;99.90
5697;DHT22;2873;50.966;7.210;2022-11-18T07:49:05;11.00;99.90
5697;DHT22;2873;50.966;7.210;2022-11-18T07:51:33;11.00;99.90
5697;DHT22;2873;50.966;7.210;2022-11-18T07:53:59;11.00;99.90
5697;DHT22;2873;50.966;7.210;2022-11-18T07:56:25;11.00;99.90
5697;DHT22;2873;50.966;7.210;2022-11-18T07:58:55;11.00;99.90
5697;DHT22;2873;50.966;7.210;2022-11-18T08:01:24;11.10;99.90
5697;DHT22;2873;50.966;7.210;2022-11-18T08:03:53;11.10;99.90
5697;DHT22;2873;50.966;7.210;2022-11-18T08:06:18;11.10;99.90
5697;DHT22;2873;50.966;7.210;2022-11-18T08:08:44;11.10;99.90
5697;DHT22;2873;50.966;7.210;2022-11-18T08:11:13;11.10;99.90
5697;DHT22;2873;50.966;7.210;2022-11-18T08:13:38;11.10;99.90
5697;DHT22;2873;50.966;7.210;2022-11-18T08:16:20;11.10;99.90
5697;DHT22;2873;50.966;7.210;2022-11-18T08:18:46;11.10;99.90
5697;DHT22;2873;50.966;7.210;2022-11-18T08:21:13;11.20;99.90
5697;DHT22;2873;50.966;7.210;2022-11-18T08:23:39;11.20;99.90
5697;DHT22;2873;50.966;7.210;2022-11-18T08:26:12;11.20;99.90
5697;DHT22;2873;50.966;7.210;2022-11-18T08:28:40;11.20;99.90
5697;DHT22;2873;50.966;7.210;2022-11-18T08:31:15;11.30;99.90
5697;DHT22;2873;50.966;7.210;2022-11-18T08:33:41;11.20;99.90
5697;DHT22;2873;50.966;7.210;2022-11-18T08:36:17;11.20;99.90
5697;DHT22;2873;50.966;7.210;2022-11-18T08:38:43;11.10;99.90
5697;DHT22;2873;50.966;7.210;2022-11-18T08:41:14;11.10;99.90
5697;DHT22;2873;50.966;7.210;2022-11-18T08:43:40;11.20;99.90
5697;DHT22;2873;50.966;7.210;2022-11-18T08:46:06;11.20;99.90
5697;DHT22;2873;50.966;7.210;2022-11-18T08:48:31;11.30;99.90
5697;DHT22;2873;50.966;7.210;2022-11-18T08:50:57;11.30;99.90
5697;DHT22;2873;50.966;7.210;2022-11-18T08:53:23;11.40;99.90
5697;DHT22;2873;50.966;7.210;2022-11-18T08:55:57;11.30;99.90
5697;DHT22;2873;50.966;7.210;2022-11-18T08:58:23;11.40;99.90
5697;DHT22;2873;50.966;7.210;2022-11-18T09:00:48;11.40;99.90
5697;DHT22;2873;50.966;7.210;2022-11-18T09:03:14;11.40;99.90
5697;DHT22;2873;50.966;7.210;2022-11-18T09:05:40;11.40;99.90
5697;DHT22;2873;50.966;7.210;2022-11-18T09:08:05;11.50;99.90
5697;DHT22;2873;50.966;7.210;2022-11-18T09:10:31;11.50;99.90
5697;DHT22;2873;50.966;7.210;2022-11-18T09:12:59;11.60;99.90
5697;DHT22;2873;50.966;7.210;2022-11-18T09:15:24;11.60;99.90
5697;DHT22;2873;50.966;7.210;2022-11-18T09:17:51;11.70;99.90
5697;DHT22;2873;50.966;7.210;2022-11-18T09:20:16;11.70;99.90
5697;DHT22;2873;50.966;7.210;2022-11-18T09:22:42;11.80;99.90
5697;DHT22;2873;50.966;7.210;2022-11-18T09:25:08;11.90;99.90
5697;DHT22;2873;50.966;7.210;2022-11-18T09:27:33;12.00;99.90
5697;DHT22;2873;50.966;7.210;2022-11-18T09:29:59;12.10;99.90
5697;DHT22;2873;50.966;7.210;2022-11-18T09:32:25;12.30;99.90
5697;DHT22;2873;50.966;7.210;2022-11-18T09:34:50;12.50;99.90
5697;DHT22;2873;50.966;7.210;2022-11-18T09:37:16;13.10;99.90
5697;DHT22;2873;50.966;7.210;2022-11-18T09:39:41;13.50;99.90
5697;DHT22;2873;50.966;7.210;2022-11-18T09:42:34;14.30;99.90
5697;DHT22;2873;50.966;7.210;2022-11-18T09:45:12;15.20;99.90
5697;DHT22;2873;50.966;7.210;2022-11-18T09:47:41;16.20;99.90
5697;DHT22;2873;50.966;7.210;2022-11-18T09:50:16;16.70;99.90
5697;DHT22;2873;50.966;7.210;2022-11-18T09:55:27;17.90;99.90
5697;DHT22;2873;50.966;7.210;2022-11-18T09:57:55;18.20;99.90
5697;DHT22;2873;50.966;7.210;2022-11-18T10:00:23;18.30;99.90
5697;DHT22;2873;50.966;7.210;2022-11-18T10:03:10;18.50;99.90
5697;DHT22;2873;50.966;7.210;2022-11-18T10:05:54;18.80;99.90
5697;DHT22;2873;50.966;7.210;2022-11-18T10:08:35;18.80;99.90
5697;DHT22;2873;50.966;7.210;2022-11-18T10:11:18;19.00;99.90
5697;DHT22;2873;50.966;7.210;2022-11-18T10:20:05;19.30;99.90
5697;DHT22;2873;50.966;7.210;2022-11-18T10:22:48;19.10;99.90
5697;DHT22;2873;50.966;7.210;2022-11-18T10:25:16;18.90;99.90
5697;DHT22;2873;50.966;7.210;2022-11-18T10:27:44;18.80;99.90
5697;DHT22;2873;50.966;7.210;2022-11-18T10:30:24;18.40;99.90
5697;DHT22;2873;50.966;7.210;2022-11-18T10:32:57;18.30;99.90
5697;DHT22;2873;50.966;7.210;2022-11-18T10:35:31;17.90;99.90
5697;DHT22;2873;50.966;7.210;2022-11-18T10:38:06;18.00;99.90
5697;DHT22;2873;50.966;7.210;2022-11-18T10:43:45;17.20;99.90
5697;DHT22;2873;50.966;7.210;2022-11-18T10:46:32;16.70;99.90
5697;DHT22;2873;50.966;7.210;2022-11-18T10:51:33;15.80;99.90
5697;DHT22;2873;50.966;7.210;2022-11-18T10:56:49;15.10;99.90
5697;DHT22;2873;50.966;7.210;2022-11-18T10:59:30;14.80;99.90
5697;DHT22;2873;50.966;7.210;2022-11-18T11:02:28;14.60;99.90
5697;DHT22;2873;50.966;7.210;2022-11-18T11:04:56;14.50;99.90
5697;DHT22;2873;50.966;7.210;2022-11-18T11:07:33;14.40;99.90
5697;DHT22;2873;50.966;7.210;2022-11-18T11:12:42;14.20;99.90
5697;DHT22;2873;50.966;7.210;2022-11-18T11:18:03;14.20;99.90
5697;DHT22;2873;50.966;7.210;2022-11-18T11:20:51;14.20;99.90
5697;DHT22;2873;50.966;7.210;2022-11-18T11:23:16;14.10;99.90
5697;DHT22;2873;50.966;7.210;2022-11-18T11:25:58;14.10;99.90
5697;DHT22;2873;50.966;7.210;2022-11-18T11:45:03;16.90;99.90
5697;DHT22;2873;50.966;7.210;2022-11-18T11:48:04;16.90;99.90
5697;DHT22;2873;50.966;7.210;2022-11-18T11:50:59;16.60;99.90
5697;DHT22;2873;50.966;7.210;2022-11-18T11:56:32;16.00;99.90
5697;DHT22;2873;50.966;7.210;2022-11-18T12:04:33;15.80;99.90
5697;DHT22;2873;50.966;7.210;2022-11-18T12:07:02;15.90;99.90
5697;DHT22;2873;50.966;7.210;2022-11-18T12:20:49;14.60;99.90
5697;DHT22;2873;50.966;7.210;2022-11-18T12:23:22;14.60;99.90
5697;DHT22;2873;50.966;7.210;2022-11-18T12:26:03;14.80;99.90
5697;DHT22;2873;50.966;7.210;2022-11-18T12:28:36;14.70;99.90
5697;DHT22;2873;50.966;7.210;2022-11-18T12:33:55;14.70;99.90
5697;DHT22;2873;50.966;7.210;2022-11-18T12:36:33;14.60;99.90
5697;DHT22;2873;50.966;7.210;2022-11-18T12:44:42;14.60;99.90
5697;DHT22;2873;50.966;7.210;2022-11-18T12:47:09;14.70;99.90
5697;DHT22;2873;50.966;7.210;2022-11-18T12:52:02;15.20;99.90
5697;DHT22;2873;50.966;7.210;2022-11-18T12:54:46;15.40;99.90
5697;DHT22;2873;50.966;7.210;2022-11-18T12:57:27;15.60;99.90
5697;DHT22;2873;50.966;7.210;2022-11-18T12:59:53;15.50;99.90
5697;DHT22;2873;50.966;7.210;2022-11-18T13:04:44;15.50;99.90
5697;DHT22;2873;50.966;7.210;2022-11-18T13:07:11;15.50;99.90
5697;DHT22;2873;50.966;7.210;2022-11-18T13:09:57;15.40;99.90
5697;DHT22;2873;50.966;7.210;2022-11-18T13:12:28;15.40;99.90
5697;DHT22;2873;50.966;7.210;2022-11-18T13:14:54;15.30;99.90
5697;DHT22;2873;50.966;7.210;2022-11-18T13:17:40;15.20;99.90
5697;DHT22;2873;50.966;7.210;2022-11-18T13:20:29;15.20;99.90
5697;DHT22;2873;50.966;7.210;2022-11-18T13:22:59;15.10;99.90
5697;DHT22;2873;50.966;7.210;2022-11-18T13:25:45;15.10;99.90
5697;DHT22;2873;50.966;7.210;2022-11-18T13:28:33;15.00;99.90
5697;DHT22;2873;50.966;7.210;2022-11-18T13:31:21;14.90;99.90
5697;DHT22;2873;50.966;7.210;2022-11-18T13:33:51;14.90;99.90
5697;DHT22;2873;50.966;7.210;2022-11-18T13:36:22;14.90;99.90
5697;DHT22;2873;50.966;7.210;2022-11-18T13:41:25;14.90;99.90
5697;DHT22;2873;50.966;7.210;2022-11-18T13:44:09;14.80;99.90
5697;DHT22;2873;50.966;7.210;2022-11-18T13:46:38;14.80;99.90
5697;DHT22;2873;50.966;7.210;2022-11-18T13:49:03;14.70;99.90
5697;DHT22;2873;50.966;7.210;2022-11-18T13:51:29;14.70;99.90
5697;DHT22;2873;50.966;7.210;2022-11-18T13:53:55;14.70;99.90
5697;DHT22;2873;50.966;7.210;2022-11-18T13:56:25;14.70;99.90
5697;DHT22;2873;50.966;7.210;2022-11-18T13:58:54;14.60;99.90
5697;DHT22;2873;50.966;7.210;2022-11-18T14:01:31;14.60;99.90
5697;DHT22;2873;50.966;7.210;2022-11-18T14:04:24;14.60;99.90
5697;DHT22;2873;50.966;7.210;2022-11-18T14:06:50;14.60;99.90
5697;DHT22;2873;50.966;7.210;2022-11-18T14:12:03;14.50;99.90
5697;DHT22;2873;50.966;7.210;2022-11-18T14:14:36;14.40;99.90
5697;DHT22;2873;50.966;7.210;2022-11-18T14:17:04;14.40;99.90
5697;DHT22;2873;50.966;7.210;2022-11-18T14:19:31;14.30;99.90
5697;DHT22;2873;50.966;7.210;2022-11-18T14:22:12;14.30;99.90
5697;DHT22;2873;50.966;7.210;2022-11-18T14:24:39;14.30;99.90
5697;DHT22;2873;50.966;7.210;2022-11-18T14:29:52;14.20;99.90
5697;DHT22;2873;50.966;7.210;2022-11-18T14:32:18;14.20;99.90
5697;DHT22;2873;50.966;7.210;2022-11-18T14:34:43;14.20;99.90
5697;DHT22;2873;50.966;7.210;2022-11-18T14:37:11;14.20;99.90
5697;DHT22;2873;50.966;7.210;2022-11-18T14:39:37;14.20;99.90
5697;DHT22;2873;50.966;7.210;2022-11-18T14:42:03;14.20;99.90
5697;DHT22;2873;50.966;7.210;2022-11-18T14:44:31;14.10;99.90
5697;DHT22;2873;50.966;7.210;2022-11-18T14:47:03;14.10;99.90
5697;DHT22;2873;50.966;7.210;2022-11-18T14:49:30;14.10;99.90
5697;DHT22;2873;50.966;7.210;2022-11-18T14:51:57;14.00;99.90
5697;DHT22;2873;50.966;7.210;2022-11-18T14:54:24;14.00;99.90
5697;DHT22;2873;50.966;7.210;2022-11-18T14:56:51;14.10;99.90
5697;DHT22;2873;50.966;7.210;2022-11-18T14:59:19;13.90;99.90
5697;DHT22;2873;50.966;7.210;2022-11-18T15:01:46;13.90;99.90
5697;DHT22;2873;50.966;7.210;2022-11-18T15:04:12;13.90;99.90
5697;DHT22;2873;50.966;7.210;2022-11-18T15:06:38;13.90;99.90
5697;DHT22;2873;50.966;7.210;2022-11-18T15:09:04;13.80;99.90
5697;DHT22;2873;50.966;7.210;2022-11-18T15:11:32;13.80;99.90
5697;DHT22;2873;50.966;7.210;2022-11-18T15:13:57;13.70;99.90
5697;DHT22;2873;50.966;7.210;2022-11-18T15:16:28;13.70;99.90
5697;DHT22;2873;50.966;7.210;2022-11-18T15:18:55;13.60;99.90
5697;DHT22;2873;50.966;7.210;2022-11-18T15:21:22;13.60;99.90
5697;DHT22;2873;50.966;7.210;2022-11-18T15:23:48;13.50;99.90
5697;DHT22;2873;50.966;7.210;2022-11-18T15:26:41;13.50;99.90
5697;DHT22;2873;50.966;7.210;2022-11-18T15:29:17;13.40;99.90
5697;DHT22;2873;50.966;7.210;2022-11-18T15:31:43;13.30;99.90
5697;DHT22;2873;50.966;7.210;2022-11-18T15:34:08;13.30;99.90
5697;DHT22;2873;50.966;7.210;2022-11-18T15:36:34;13.20;99.90
5697;DHT22;2873;50.966;7.210;2022-11-18T15:39:00;13.20;99.90
5697;DHT22;2873;50.966;7.210;2022-11-18T15:41:27;13.10;99.90
5697;DHT22;2873;50.966;7.210;2022-11-18T15:43:54;13.10;99.90
5697;DHT22;2873;50.966;7.210;2022-11-18T15:46:22;13.00;99.90
5697;DHT22;2873;50.966;7.210;2022-11-18T15:48:52;13.00;99.90
5697;DHT22;2873;50.966;7.210;2022-11-18T15:51:18;12.90;99.90
5697;DHT22;2873;50.966;7.210;2022-11-18T15:53:44;12.80;99.90
5697;DHT22;2873;50.966;7.210;2022-11-18T16:01:28;12.70;99.90
5697;DHT22;2873;50.966;7.210;2022-11-18T16:03:55;12.60;99.90
5697;DHT22;2873;50.966;7.210;2022-11-18T16:06:21;12.60;99.90
5697;DHT22;2873;50.966;7.210;2022-11-18T16:08:47;12.50;99.90
5697;DHT22;2873;50.966;7.210;2022-11-18T16:11:14;12.50;99.90
5697;DHT22;2873;50.966;7.210;2022-11-18T16:14:02;12.40;99.90
5697;DHT22;2873;50.966;7.210;2022-11-18T16:16:28;12.30;99.90
5697;DHT22;2873;50.966;7.210;2022-11-18T16:19:00;12.30;99.90
5697;DHT22;2873;50.966;7.210;2022-11-18T16:21:27;12.20;99.90
5697;DHT22;2873;50.966;7.210;2022-11-18T16:23:56;12.20;99.90
5697;DHT22;2873;50.966;7.210;2022-11-18T16:26:23;12.10;99.90
5697;DHT22;2873;50.966;7.210;2022-11-18T16:28:48;12.10;99.90
5697;DHT22;2873;50.966;7.210;2022-11-18T16:31:14;12.10;99.90
5697;DHT22;2873;50.966;7.210;2022-11-18T16:33:58;12.00;99.90
5697;DHT22;2873;50.966;7.210;2022-11-18T16:36:28;11.90;99.90
5697;DHT22;2873;50.966;7.210;2022-11-18T16:38:54;11.90;99.90
5697;DHT22;2873;50.966;7.210;2022-11-18T16:41:19;11.90;99.90
5697;DHT22;2873;50.966;7.210;2022-11-18T16:43:58;11.80;99.90
5697;DHT22;2873;50.966;7.210;2022-11-18T16:46:25;11.80;99.90
5697;DHT22;2873;50.966;7.210;2022-11-18T16:48:51;11.70;99.90
5697;DHT22;2873;50.966;7.210;2022-11-18T16:51:19;11.70;99.90
5697;DHT22;2873;50.966;7.210;2022-11-18T16:53:50;11.60;99.90
5697;DHT22;2873;50.966;7.210;2022-11-18T16:56:17;11.60;99.90
5697;DHT22;2873;50.966;7.210;2022-11-18T16:58:43;11.60;99.90
5697;DHT22;2873;50.966;7.210;2022-11-18T17:01:10;11.60;99.90
5697;DHT22;2873;50.966;7.210;2022-11-18T17:03:36;11.60;99.90
5697;DHT22;2873;50.966;7.210;2022-11-18T17:06:01;11.50;99.90
5697;DHT22;2873;50.966;7.210;2022-11-18T17:08:27;11.50;99.90
5697;DHT22;2873;50.966;7.210;2022-11-18T17:10:52;11.40;99.90
5697;DHT22;2873;50.966;7.210;2022-11-18T17:13:18;11.40;99.90
5697;DHT22;2873;50.966;7.210;2022-11-18T17:15:43;11.40;99.90
5697;DHT22;2873;50.966;7.210;2022-11-18T17:18:09;11.30;99.90
5697;DHT22;2873;50.966;7.210;2022-11-18T17:20:34;11.30;99.90
5697;DHT22;2873;50.966;7.210;2022-11-18T17:23:00;11.30;99.90
5697;DHT22;2873;50.966;7.210;2022-11-18T17:25:26;11.20;99.90
5697;DHT22;2873;50.966;7.210;2022-11-18T17:27:51;11.20;99.90
5697;DHT22;2873;50.966;7.210;2022-11-18T17:30:17;11.20;99.90
5697;DHT22;2873;50.966;7.210;2022-11-18T17:32:42;11.10;99.90
5697;DHT22;2873;50.966;7.210;2022-11-18T17:35:08;11.10;99.90
5697;DHT22;2873;50.966;7.210;2022-11-18T17:37:34;11.10;99.90
5697;DHT22;2873;50.966;7.210;2022-11-18T17:39:59;11.10;99.90
5697;DHT22;2873;50.966;7.210;2022-11-18T17:42:25;11.10;99.90
5697;DHT22;2873;50.966;7.210;2022-11-18T17:44:51;11.10;99.90
5697;DHT22;2873;50.966;7.210;2022-11-18T17:47:16;11.10;99.90
5697;DHT22;2873;50.966;7.210;2022-11-18T17:49:42;11.10;99.90
5697;DHT22;2873;50.966;7.210;2022-11-18T17:52:08;11.10;99.90
5697;DHT22;2873;50.966;7.210;2022-11-18T17:54:33;11.00;99.90
5697;DHT22;2873;50.966;7.210;2022-11-18T17:56:59;11.00;99.90
5697;DHT22;2873;50.966;7.210;2022-11-18T17:59:25;11.00;99.90
5697;DHT22;2873;50.966;7.210;2022-11-18T18:01:50;11.00;99.90
5697;DHT22;2873;50.966;7.210;2022-11-18T18:04:16;11.00;99.90
5697;DHT22;2873;50.966;7.210;2022-11-18T18:06:47;11.00;99.90
5697;DHT22;2873;50.966;7.210;2022-11-18T18:09:13;11.10;99.90